createdAt,value
2018-04-01T00:00:08.296Z,91.3
2018-04-01T00:10:18.801Z,91.2
2018-04-01T00:15:18.494Z,91.2
2018-04-01T00:20:03.163Z,91.2
2018-04-01T00:25:07.723Z,91.3
2018-04-01T00:30:23.531Z,91.3
2018-04-01T00:35:12.982Z,91.2
2018-04-01T00:40:10.599Z,91.3
2018-04-01T00:45:18.762Z,91.3
2018-04-01T00:50:26.118Z,91.3
2018-04-01T00:55:05.187Z,91.4
2018-04-01T01:00:22.998Z,91.3
2018-04-01T01:05:18.507Z,91.4
2018-04-01T01:10:07.778Z,91.5
2018-04-01T01:15:08.249Z,91.5
2018-04-01T01:20:07.932Z,91.6
2018-04-01T01:25:06.004Z,91.7
2018-04-01T01:30:08.699Z,91.7
2018-04-01T01:35:10.709Z,91.6
2018-04-01T01:40:35.847Z,91.6
2018-04-01T01:45:08.557Z,91.6
2018-04-01T01:55:03.081Z,91.7
2018-04-01T02:00:18.660Z,91.3
2018-04-01T02:05:05.333Z,91.3
2018-04-01T02:10:08.176Z,91
2018-04-01T02:15:08.393Z,91
2018-04-01T02:25:20.783Z,90.8
2018-04-01T02:30:08.248Z,90.9
2018-04-01T02:35:16.051Z,90.8
2018-04-01T02:40:05.343Z,90.9
2018-04-01T02:45:03.124Z,90.9
2018-04-01T02:50:18.651Z,91
2018-04-01T02:55:02.736Z,91
2018-04-01T03:00:23.306Z,91.1
2018-04-01T03:05:15.999Z,91.1
2018-04-01T03:10:05.448Z,91.1
2018-04-01T03:15:08.164Z,91.1
2018-04-01T03:20:06.078Z,91.1
2018-04-01T03:25:05.367Z,91
2018-04-01T03:30:10.228Z,91.3
2018-04-01T03:35:05.648Z,91.3
2018-04-01T03:40:05.924Z,91.4
2018-04-01T03:45:05.191Z,91.2
2018-04-01T03:50:03.519Z,91.2
2018-04-01T03:55:07.794Z,91.1
2018-04-01T04:00:05.657Z,91.1
2018-04-01T04:05:08.403Z,91
2018-04-01T04:10:15.823Z,91.1
2018-04-01T04:15:03.432Z,91.1
2018-04-01T04:20:05.519Z,90.8
2018-04-01T04:25:15.980Z,90.6
2018-04-01T04:30:18.461Z,90.5
2018-04-01T04:35:07.668Z,90.5
2018-04-01T04:40:03.472Z,90.5
2018-04-01T04:45:05.272Z,90.5
2018-04-01T04:50:03.643Z,90.5
2018-04-01T04:55:05.375Z,90.5
2018-04-01T05:00:05.226Z,90.3
2018-04-01T05:05:03.024Z,90.3
2018-04-01T05:10:05.348Z,90.4
2018-04-01T05:15:03.030Z,90.3
2018-04-01T05:20:10.964Z,90.5
2018-04-01T05:25:15.401Z,90.4
2018-04-01T05:30:13.030Z,90.5
2018-04-01T05:35:03.013Z,90.5
2018-04-01T05:40:02.765Z,90.5
2018-04-01T05:45:05.509Z,90.3
2018-04-01T05:50:02.787Z,90.3
2018-04-01T05:55:03.234Z,90.1
2018-04-01T06:00:06.050Z,90.4
2018-04-01T06:05:30.576Z,90.2
2018-04-01T06:10:18.587Z,90.2
2018-04-01T06:15:02.850Z,90.2
2018-04-01T06:20:05.752Z,90.1
2018-04-01T06:25:07.633Z,89.9
2018-04-01T06:30:28.218Z,90
2018-04-01T06:35:08.548Z,90
2018-04-01T06:40:03.599Z,90
2018-04-01T06:45:02.843Z,89.6
2018-04-01T06:50:15.546Z,88.9
2018-04-01T06:55:05.749Z,88.9
2018-04-01T07:00:28.330Z,88.2
2018-04-01T07:05:07.629Z,88.3
2018-04-01T07:10:05.926Z,87.9
2018-04-01T07:15:10.229Z,87.5
2018-04-01T07:20:05.266Z,87.4
2018-04-01T07:25:07.935Z,86.3
2018-04-01T07:35:10.933Z,85.9
2018-04-01T07:40:07.921Z,85.8
2018-04-01T07:45:10.771Z,85
2018-04-01T07:50:08.154Z,84.8
2018-04-01T07:55:08.448Z,84.8
2018-04-01T08:00:07.798Z,84.3
2018-04-01T08:05:05.573Z,84.7
2018-04-01T08:10:11.047Z,84.4
2018-04-01T08:15:12.720Z,83.8
2018-04-01T08:20:03.102Z,83.8
2018-04-01T08:25:10.980Z,82.9
2018-04-01T08:30:03.303Z,82.9
2018-04-01T08:35:07.772Z,82.7
2018-04-01T08:40:08.397Z,82.3
2018-04-01T08:45:11.105Z,81.8
2018-04-01T08:50:03.401Z,81.8
2018-04-01T08:55:02.652Z,81.4
2018-04-01T09:00:02.942Z,81.5
2018-04-01T09:05:05.763Z,80.3
2018-04-01T09:10:11.096Z,81
2018-04-01T09:15:02.902Z,81
2018-04-01T09:20:03.293Z,80.1
2018-04-01T09:25:11.169Z,80.2
2018-04-01T09:30:03.492Z,80.2
2018-04-01T09:35:07.860Z,79.9
2018-04-01T09:40:02.660Z,79.8
2018-04-01T09:45:03.007Z,80
2018-04-01T09:50:08.397Z,79.7
2018-04-01T09:55:17.853Z,78.9
2018-04-01T10:00:05.805Z,79
2018-04-01T10:05:05.127Z,78.6
2018-04-01T10:10:30.863Z,79.2
2018-04-01T10:15:08.279Z,78.9
2018-04-01T10:20:17.990Z,78.3
2018-04-01T10:25:10.586Z,78
2018-04-01T10:30:02.959Z,77.9
2018-04-01T10:35:08.312Z,77.8
2018-04-01T10:40:03.290Z,77.8
2018-04-01T10:45:10.497Z,78.5
2018-04-01T10:50:02.747Z,78.5
2018-04-01T10:55:38.438Z,79.7
2018-04-01T11:00:05.253Z,80.5
2018-04-01T11:05:20.644Z,80.9
2018-04-01T11:10:16.159Z,80.4
2018-04-01T11:15:10.290Z,80.5
2018-04-01T11:20:05.278Z,80.8
2018-04-01T11:25:10.585Z,81.4
2018-04-01T11:30:05.400Z,80.3
2018-04-01T11:35:38.575Z,80.8
2018-04-01T11:40:03.338Z,80.8
2018-04-01T11:45:10.248Z,82.1
2018-04-01T11:50:13.685Z,82.2
2018-04-01T11:55:23.060Z,82.4
2018-04-01T12:00:16.002Z,82.1
2018-04-01T12:05:11.156Z,81.9
2018-04-01T12:10:03.040Z,82
2018-04-01T12:15:03.497Z,81.6
2018-04-01T12:20:15.652Z,81.5
2018-04-01T12:25:26.166Z,80.5
2018-04-01T12:30:02.806Z,80.5
2018-04-01T12:35:10.737Z,78.9
2018-04-01T12:40:28.860Z,79.8
2018-04-01T12:50:03.427Z,79.6
2018-04-01T12:55:07.760Z,79.7
2018-04-01T13:00:03.165Z,79.8
2018-04-01T13:05:18.647Z,79.7
2018-04-01T13:10:13.539Z,78.5
2018-04-01T13:15:02.720Z,78.5
2018-04-01T13:20:23.437Z,79.7
2018-04-01T13:25:07.645Z,79.4
2018-04-01T13:30:07.993Z,78.8
2018-04-01T13:35:10.985Z,77.7
2018-04-01T13:40:02.811Z,77.9
2018-04-01T13:45:10.629Z,78.3
2018-04-01T13:50:10.491Z,78.8
2018-04-01T13:55:08.295Z,80.8
2018-04-01T14:00:07.654Z,81.9
2018-04-01T14:05:02.845Z,82
2018-04-01T14:10:07.688Z,86.4
2018-04-01T14:15:13.094Z,86.4
2018-04-01T14:20:03.518Z,86.3
2018-04-01T14:25:07.894Z,88
2018-04-01T14:30:13.644Z,88.9
2018-04-01T14:35:15.594Z,88.9
2018-04-01T14:40:03.333Z,88.8
2018-04-01T14:45:17.884Z,90
2018-04-01T14:50:18.546Z,89.8
2018-04-01T14:55:12.726Z,90.3
2018-04-01T15:00:03.054Z,90.3
2018-04-01T15:05:05.871Z,90.4
2018-04-01T15:10:02.784Z,90.4
2018-04-01T15:15:03.393Z,90.7
2018-04-01T15:20:07.899Z,90.6
2018-04-01T15:25:05.572Z,90.6
2018-04-01T15:30:05.399Z,90.8
2018-04-01T15:35:05.689Z,90.6
2018-04-01T15:40:11.071Z,90.6
2018-04-01T15:45:03.009Z,90.6
2018-04-01T15:50:05.894Z,90.9
2018-04-01T15:55:05.226Z,90.9
2018-04-01T16:00:23.723Z,90.9
2018-04-01T16:05:05.342Z,91
2018-04-01T16:10:05.676Z,91.4
2018-04-01T16:15:06.089Z,91.4
2018-04-01T16:20:13.634Z,91.5
2018-04-01T16:25:10.266Z,91.8
2018-04-01T16:30:08.600Z,92
2018-04-01T16:35:02.857Z,92
2018-04-01T16:40:07.789Z,91.8
2018-04-01T16:45:07.953Z,92
2018-04-01T16:50:05.884Z,92.1
2018-04-01T16:55:02.696Z,92.1
2018-04-01T17:00:25.833Z,91.7
2018-04-01T17:05:23.378Z,91.8
2018-04-01T17:10:03.137Z,91.8
2018-04-01T17:15:08.519Z,91.7
2018-04-01T17:20:05.526Z,91.7
2018-04-01T17:25:20.879Z,91.7
2018-04-01T17:30:13.296Z,91.5
2018-04-01T17:40:03.007Z,91.9
2018-04-01T17:45:10.877Z,91.7
2018-04-01T17:50:03.162Z,91.7
2018-04-01T17:55:03.536Z,92
2018-04-01T18:00:05.346Z,92.2
2018-04-01T18:05:05.735Z,91.9
2018-04-01T18:10:13.684Z,91.4
2018-04-01T18:15:07.886Z,91.4
2018-04-01T18:20:08.341Z,91.7
2018-04-01T18:25:10.195Z,91.7
2018-04-01T18:30:13.585Z,91.6
2018-04-01T18:40:03.367Z,91.6
2018-04-01T18:45:07.954Z,91.6
2018-04-01T18:50:03.231Z,91.6
2018-04-01T18:55:03.512Z,91.3
2018-04-01T19:00:25.586Z,91.4
2018-04-01T19:05:26.286Z,91.6
2018-04-01T19:10:08.159Z,91.7
2018-04-01T19:15:26.321Z,91.8
2018-04-01T19:20:05.242Z,92
2018-04-01T19:25:30.874Z,92.1
2018-04-01T19:30:05.762Z,92
2018-04-01T19:35:10.943Z,91.9
2018-04-01T19:40:07.910Z,91.8
2018-04-01T19:45:08.262Z,91.9
2018-04-01T19:50:06.095Z,92.2
2018-04-01T19:55:05.412Z,92.4
2018-04-01T20:00:05.236Z,92.4
2018-04-01T20:05:05.611Z,92.3
2018-04-01T20:15:11.138Z,92.3
2018-04-01T20:20:36.509Z,92.3
2018-04-01T20:25:25.598Z,92.3
2018-04-01T20:30:20.677Z,92.3
2018-04-01T20:35:03.324Z,92.3
2018-04-01T20:40:03.045Z,92.2
2018-04-01T20:45:05.976Z,92.2
2018-04-01T20:50:03.319Z,92.2
2018-04-01T20:55:02.609Z,92
2018-04-01T21:00:03.482Z,91.4
2018-04-01T21:05:05.352Z,90.9
2018-04-01T21:10:15.773Z,90.4
2018-04-01T21:15:03.400Z,90.3
2018-04-01T21:20:02.833Z,90
2018-04-01T21:25:03.056Z,89.3
2018-04-01T21:30:16.086Z,88.1
2018-04-01T21:35:15.269Z,87.2
2018-04-01T21:40:08.212Z,87.3
2018-04-01T21:45:03.425Z,87.3
2018-04-01T21:50:15.377Z,86.3
2018-04-01T21:55:13.147Z,85.3
2018-04-01T22:00:03.480Z,85.3
2018-04-01T22:05:30.650Z,83.8
2018-04-01T22:10:06.062Z,83.5
2018-04-01T22:15:10.462Z,83.5
2018-04-01T22:20:02.848Z,83.5
2018-04-01T22:25:08.180Z,83.7
2018-04-01T22:30:33.827Z,83.4
2018-04-01T22:35:03.189Z,83.5
2018-04-01T22:40:08.046Z,83.2
2018-04-01T22:45:08.240Z,82.2
2018-04-01T22:50:18.720Z,81.7
2018-04-01T22:55:02.934Z,81.6
2018-04-01T23:00:03.283Z,81.5
2018-04-01T23:05:06.073Z,81.2
2018-04-01T23:10:08.073Z,81
2018-04-01T23:15:05.757Z,80.9
2018-04-01T23:20:28.468Z,80.6
2018-04-01T23:25:02.787Z,80.7
2018-04-01T23:30:18.283Z,80.4
2018-04-01T23:35:10.855Z,81.4
2018-04-01T23:40:22.950Z,81.4
2018-04-01T23:45:05.554Z,82
2018-04-01T23:50:05.463Z,81.9
2018-04-01T23:55:15.911Z,81.4
